D/T METAR WX W/DIR W/SPE G/SPE TEMP DEWP
8/12/19 14:50 EGLF 081450Z 27017G33KT 240V310 9999 4000NE SHRA FEW018 SCT030 08/04 Q1000 REUP SHRA W (270°) 19.6mph 38.0mph 8°C 4°C
8/12/19 14:20 EGLF 081420Z AUTO 23017G28KT 9999 FEW038/// 09/04 Q0999 SW (230°) 19.6mph 32.2mph 9°C 4°C
8/12/19 13:50 EGLF 081350Z AUTO 24015KT 9999 SCT036/// SCT044/// 09/04 Q1000 WSW (240°) 17.3mph 9°C 4°C
8/12/19 12:50 EGLF 081250Z AUTO 24017KT 220V280 9999 BKN040/// 10/03 Q1001 WSW (240°) 19.6mph 10°C 3°C
8/12/19 12:20 EGLF 081220Z AUTO 24020KT 9999 FEW042/// 10/04 Q1001 WSW (240°) 23.0mph 10°C 4°C
8/12/19 11:20 EGLF 081120Z 23016KT 9999 FEW018 09/05 Q1002 SW (230°) 18.4mph 9°C 5°C
8/12/19 10:50 EGLF 081050Z 24020KT 9999 VCSH FEW015 SCT033 09/05 Q1002 REUP VCSH WSW (240°) 23.0mph 9°C 5°C
8/12/19 10:20 EGLF 081020Z AUTO 23019KT 9999 FEW028/// SCT036/// 09/05 Q1002 SW (230°) 21.9mph 9°C 5°C
8/12/19 09:50 EGLF 080950Z AUTO 24017KT 9999 SCT028/// SCT039/// 09/05 Q1002 WSW (240°) 19.6mph 9°C 5°C
8/12/19 09:20 EGLF 080920Z AUTO 24017KT 9999 BKN030/// OVC039/// 09/05 Q1002 WSW (240°) 19.6mph 9°C 5°C
8/12/19 08:50 EGLF 080850Z AUTO 24015KT 9999 SCT031/// BKN041/// BKN049/// 09/05 Q1002 WSW (240°) 17.3mph 9°C 5°C
8/12/19 08:20 EGLF 080820Z AUTO 24015KT 9999 SCT028/// SCT039/// 09/05 Q1001 WSW (240°) 17.3mph 9°C 5°C
8/12/19 07:50 EGLF 080750Z AUTO 24015KT 9999 FEW029/// 09/05 Q1001 WSW (240°) 17.3mph 9°C 5°C
8/12/19 07:20 EGLF 080720Z AUTO 25014KT 9999 FEW032/// 10/05 Q1001 WSW (250°) 16.1mph 10°C 5°C
8/12/19 06:50 EGLF 080650Z AUTO 25016KT 9999 FEW031/// SCT042/// 10/05 Q1001 WSW (250°) 18.4mph 10°C 5°C
8/12/19 06:20 EGLF 080620Z AUTO 25014G24KT 9999 FEW031/// 10/06 Q1001 WSW (250°) 16.1mph 27.6mph 10°C 6°C
8/12/19 05:50 EGLF 080550Z AUTO 27012KT 240V310 9999 SCT028/// 11/07 Q1000 W (270°) 13.8mph 11°C 7°C
8/12/19 05:20 EGLF 080520Z AUTO 25013KT 9999 FEW010/// 12/09 Q1000 RERA REUP UP WSW (250°) 15.0mph 12°C 9°C
8/12/19 04:20 EGLF 080420Z AUTO 21016KT 9999 BKN010/// OVC018/// 11/10 Q0999 REUP REDZ SSW (210°) 18.4mph 11°C 10°C
8/12/19 03:50 EGLF 080350Z AUTO 21019KT 4100 DZ SCT010/// BKN014/// OVC018/// 11/10 Q1000 REDZ REUP DZ SSW (210°) 21.9mph 11°C 10°C
8/12/19 03:20 EGLF 080320Z AUTO 21022G34KT 6000 UP SCT011/// BKN016/// BKN035/// 11/09 Q1000 UP SSW (210°) 25.3mph 39.1mph 11°C 9°C
8/12/19 02:50 EGLF 080250Z AUTO 21025G40KT 9999 BKN012/// BKN016/// OVC021/// 10/09 Q1001 REUP SSW (210°) 28.8mph 46.0mph 10°C 9°C
8/12/19 02:20 EGLF 080220Z AUTO 21020G30KT 7000 UP FEW014/// BKN018/// 10/09 Q1002 RERA UP SSW (210°) 23.0mph 34.5mph 10°C 9°C
8/12/19 01:50 EGLF 080150Z AUTO 21020KT 3900 -RA HZ SCT014/// 10/09 Q1003 RERA -RA HZ SSW (210°) 23.0mph 10°C 9°C
8/12/19 01:20 EGLF 080120Z AUTO 21020G32KT 6000 -RA BKN014/// BKN018/// 10/08 Q1003 REUP -RA SSW (210°) 23.0mph 36.8mph 10°C 8°C
8/12/19 00:50 EGLF 080050Z AUTO 22020G32KT 9999 BKN014/// 11/08 Q1004 SW (220°) 23.0mph 36.8mph 11°C 8°C
8/12/19 00:20 EGLF 080020Z AUTO 21018G28KT 9999 OVC014/// 11/08 Q1005 SSW (210°) 20.7mph 32.2mph 11°C 8°C
7/12/19 23:50 EGLF 072350Z AUTO 21021G32KT 9999 SCT009/// OVC014/// 10/08 Q1005 SSW (210°) 24.2mph 36.8mph 10°C 8°C
7/12/19 23:20 EGLF 072320Z AUTO 21019G34KT 9999 OVC010/// 10/09 Q1006 SSW (210°) 21.9mph 39.1mph 10°C 9°C
7/12/19 22:50 EGLF 072250Z AUTO 21020G30KT 9999 OVC012/// 11/08 Q1007 SSW (210°) 23.0mph 34.5mph 11°C 8°C
7/12/19 22:20 EGLF 072220Z AUTO 21019G29KT 9999 OVC012/// 10/08 Q1008 SSW (210°) 21.9mph 33.4mph 10°C 8°C
7/12/19 21:50 EGLF 072150Z AUTO 22017KT 9999 OVC013/// 10/08 Q1008 SW (220°) 19.6mph 10°C 8°C
7/12/19 21:20 EGLF 072120Z AUTO 22020G32KT 9999 OVC013/// 10/07 Q1009 SW (220°) 23.0mph 36.8mph 10°C 7°C
7/12/19 20:50 EGLF 072050Z AUTO 21019G30KT 180V240 9999 OVC013/// 10/07 Q1009 SSW (210°) 21.9mph 34.5mph 10°C 7°C
7/12/19 20:20 EGLF 072020Z AUTO 22015G25KT 9999 OVC014/// 10/07 Q1010 SW (220°) 17.3mph 28.8mph 10°C 7°C
7/12/19 19:50 EGLF 071950Z AUTO 22014KT 9999 OVC014/// 10/07 Q1011 SW (220°) 16.1mph 10°C 7°C
7/12/19 19:20 EGLF 071920Z AUTO 22014KT 9999 OVC017/// 10/07 Q1011 SW (220°) 16.1mph 10°C 7°C
7/12/19 18:50 EGLF 071850Z AUTO 23014KT 9999 OVC018/// 10/07 Q1012 SW (230°) 16.1mph 10°C 7°C
7/12/19 17:50 EGLF 071750Z AUTO 23008KT 9999 OVC020/// 09/06 Q1013 SW (230°) 9.2mph 9°C 6°C
7/12/19 17:20 EGLF 071720Z AUTO 23012KT 9999 BKN021/// 09/06 Q1012 SW (230°) 13.8mph 9°C 6°C
7/12/19 16:50 EGLF 071650Z AUTO 22015KT 9999 OVC021 09/06 Q1013 SW (220°) 17.3mph 9°C 6°C
7/12/19 16:20 EGLF 071620Z AUTO 22010KT 9999 OVC025/// 09/06 Q1013 SW (220°) 11.5mph 9°C 6°C
7/12/19 15:20 EGLF 071520Z AUTO 24010KT 9999 OVC025/// 10/05 Q1013 WSW (240°) 11.5mph 10°C 5°C
7/12/19 14:50 EGLF 071450Z AUTO 23011KT 9999 OVC028/// 10/05 Q1013 SW (230°) 12.7mph 10°C 5°C
7/12/19 14:20 EGLF 071420Z AUTO 22011KT 9999 OVC029/// 10/05 Q1013 SW (220°) 12.7mph 10°C 5°C
7/12/19 13:50 EGLF 071350Z AUTO 23011KT 9999 BKN029/// 10/06 Q1013 SW (230°) 12.7mph 10°C 6°C
7/12/19 13:20 EGLF 071320Z AUTO 22011KT 9999 FEW024/// 10/06 Q1014 SW (220°) 12.7mph 10°C 6°C
7/12/19 12:50 EGLF 071250Z 22009KT 190V250 9999 SCT031/// 10/06 Q1014 SW (220°) 10.4mph 10°C 6°C